Time;durP1;ratioP1;P1;durP2;ratioP2;P2;SDS_P1;SDS_P2;PMS_P1;PMS_P2;Temp;Humidity;BMP_temperature;BMP_pressure;BME280_temperature;BME280_humidity;BME280_pressure;Samples;Min_cycle;Max_cycle;Signal;HPM_P1;HPM_P2
2021/12/17 00:03:21;;;;;;;2.78;1.90;;;12.60;65.30;;;;;;20830785;28;20472;-75
2021/12/17 00:13:22;;;;;;;4.95;1.83;;;12.60;65.30;;;;;;20830018;28;20041;-74
2021/12/17 00:54:28;;;;;;;3.15;1.77;;;12.60;65.30;;;;;;20814406;28;20438;-73
2021/12/17 01:04:29;;;;;;;2.55;1.77;;;12.50;65.10;;;;;;20828208;28;20025;-74
2021/12/17 01:14:29;;;;;;;3.33;1.98;;;12.50;65.10;;;;;;20811674;28;20091;-74
2021/12/17 01:24:54;;;;;;;3.38;1.95;;;12.50;65.10;;;;;;20826559;28;20037;-74
2021/12/17 01:45:31;;;;;;;2.13;1.55;;;12.50;65.10;;;;;;20814259;28;20036;-76
2021/12/17 01:55:50;;;;;;;2.55;1.67;;;12.50;65.10;;;;;;20828514;28;20065;-75
2021/12/17 02:05:51;;;;;;;3.03;1.90;;;12.50;65.10;;;;;;20827263;28;20041;-74
2021/12/17 02:36:34;;;;;;;4.28;1.88;;;12.50;65.20;;;;;;20824453;28;20539;-74
2021/12/17 02:46:35;;;;;;;3.00;1.90;;;12.50;65.20;;;;;;20837869;28;20400;-74
2021/12/17 02:56:36;;;;;;;3.30;2.20;;;12.50;65.30;;;;;;20820601;28;20026;-75
2021/12/17 03:06:36;;;;;;;2.60;1.45;;;12.50;65.30;;;;;;20834706;28;20064;-74
2021/12/17 03:16:43;;;;;;;2.42;1.80;;;12.50;65.30;;;;;;20818990;28;20025;-74
2021/12/17 03:26:44;;;;;;;4.45;2.42;;;12.40;65.30;;;;;;20835625;28;20041;-74
2021/12/17 03:36:47;;;;;;;4.40;2.08;;;12.50;65.30;;;;;;20833820;28;20030;-74
2021/12/17 03:46:49;;;;;;;3.30;2.05;;;12.40;65.30;;;;;;20800002;28;20052;-75
2021/12/17 03:56:52;;;;;;;2.92;1.65;;;12.40;65.30;;;;;;20832344;28;20116;-74
2021/12/17 04:06:53;;;;;;;3.30;1.80;;;12.40;65.30;;;;;;20815613;28;20132;-74
2021/12/17 04:17:09;;;;;;;3.53;1.95;;;12.40;65.30;;;;;;20815979;28;20053;-74
2021/12/17 04:27:10;;;;;;;4.97;2.20;;;12.40;65.40;;;;;;20813702;28;20091;-75
2021/12/17 04:37:10;;;;;;;4.07;2.67;;;12.40;65.40;;;;;;20813138;28;20079;-73
2021/12/17 04:57:37;;;;;;;5.63;2.80;;;12.40;65.50;;;;;;20812382;28;20050;-74
2021/12/17 05:07:43;;;;;;;3.67;2.55;;;12.40;65.50;;;;;;20827738;28;20033;-73
2021/12/17 05:28:04;;;;;;;4.80;2.90;;;13.00;64.30;;;;;;20812947;28;20462;-73
2021/12/17 05:38:11;;;;;;;4.20;2.70;;;13.70;62.40;;;;;;20826932;28;20725;-73
2021/12/17 05:48:12;;;;;;;3.38;2.10;;;14.40;60.60;;;;;;20825550;28;20076;-75
2021/12/17 05:58:12;;;;;;;2.70;1.90;;;14.90;59.10;;;;;;20825537;28;20033;-79
2021/12/17 06:08:13;;;;;;;3.15;1.80;;;15.10;58.10;;;;;;20837362;28;20049;-75
2021/12/17 06:18:14;;;;;;;2.97;1.58;;;15.10;57.80;;;;;;20808033;28;20050;-76
2021/12/17 06:28:16;;;;;;;3.38;1.75;;;14.90;57.90;;;;;;20810141;28;20116;-74
2021/12/17 06:38:20;;;;;;;2.08;1.20;;;14.40;58.90;;;;;;20814607;28;20140;-75
2021/12/17 06:48:26;;;;;;;2.65;1.17;;;13.90;60.00;;;;;;20789800;28;20029;-76
2021/12/17 06:59:36;;;;;;;2.42;1.48;;;13.50;60.90;;;;;;20821094;28;20036;-75
2021/12/17 07:40:29;;;;;;;2.17;0.98;;;12.70;63.80;;;;;;20819801;28;20068;-75
2021/12/17 07:50:29;;;;;;;2.40;1.15;;;12.60;64.30;;;;;;20853857;28;20058;-74
2021/12/17 08:00:43;;;;;;;1.90;0.90;;;12.60;64.40;;;;;;20749454;28;20070;-75
2021/12/17 08:10:47;;;;;;;1.42;0.80;;;12.50;64.60;;;;;;20799254;28;20040;-74
2021/12/17 08:31:09;;;;;;;2.05;0.90;;;12.60;64.80;;;;;;20813793;28;20029;-74
2021/12/17 08:41:11;;;;;;;1.40;0.95;;;12.60;64.80;;;;;;20811992;28;20059;-75
2021/12/17 08:51:12;;;;;;;1.10;0.70;;;12.60;64.80;;;;;;20783856;28;20091;-75
2021/12/17 09:01:14;;;;;;;1.73;0.93;;;12.60;64.90;;;;;;20810995;28;20062;-75
2021/12/17 09:11:15;;;;;;;3.03;1.45;;;12.50;64.90;;;;;;20824457;28;20398;-73
2021/12/17 09:21:26;;;;;;;2.17;1.15;;;12.60;65.00;;;;;;20810772;28;20106;-75
2021/12/17 09:31:41;;;;;;;1.23;0.97;;;12.60;65.00;;;;;;20809612;28;20164;-75
2021/12/17 09:41:50;;;;;;;3.10;1.25;;;12.60;65.10;;;;;;20790759;28;20037;-74
2021/12/17 09:52:09;;;;;;;2.25;0.80;;;12.50;65.10;;;;;;20777941;28;20057;-75
2021/12/17 10:02:09;;;;;;;1.90;1.10;;;12.50;65.20;;;;;;20807257;28;20520;-75
2021/12/17 10:12:10;;;;;;;2.17;1.00;;;12.50;65.20;;;;;;20807451;28;20464;-75
2021/12/17 10:22:13;;;;;;;3.00;1.40;;;12.60;65.30;;;;;;20833233;28;20041;-75
2021/12/17 10:32:18;;;;;;;1.58;0.80;;;12.50;65.30;;;;;;20806507;28;20052;-75
2021/12/17 10:42:28;;;;;;;1.33;0.90;;;12.50;65.30;;;;;;20737958;28;20395;-74
2021/12/17 10:52:39;;;;;;;2.30;1.10;;;12.50;65.30;;;;;;20772142;28;20377;-77
2021/12/17 11:02:50;;;;;;;4.88;1.30;;;12.50;65.40;;;;;;20835030;28;20049;-77
2021/12/17 11:12:51;;;;;;;4.07;1.27;;;12.50;66.10;;;;;;20819175;28;20049;-77
2021/12/17 11:22:54;;;;;;;2.75;1.05;;;12.90;64.60;;;;;;21181223;23;20042;-74
2021/12/17 11:33:01;;;;;;;2.97;1.33;;;13.50;62.80;;;;;;20726053;28;20050;-75
2021/12/17 11:43:47;;;;;;;2.20;1.08;;;14.10;61.20;;;;;;20731247;28;20088;-78
2021/12/17 11:53:59;;;;;;;2.95;1.25;;;14.60;59.50;;;;;;20746830;28;20045;-76
2021/12/17 12:04:25;;;;;;;1.77;0.85;;;15.00;58.30;;;;;;20729934;28;20515;-75
2021/12/17 12:14:30;;;;;;;1.10;0.87;;;15.10;57.60;;;;;;20757683;28;20045;-84
2021/12/17 12:24:31;;;;;;;1.90;0.95;;;15.00;57.50;;;;;;20737561;28;20155;-84
2021/12/17 12:34:34;;;;;;;3.28;0.98;;;14.70;58.10;;;;;;20740665;28;20050;-83
2021/12/17 12:44:44;;;;;;;4.88;1.08;;;14.20;59.00;;;;;;20729780;28;20053;-82
2021/12/17 12:54:50;;;;;;;1.42;0.70;;;13.80;60.10;;;;;;20731892;28;20408;-82
2021/12/17 13:04:57;;;;;;;1.42;1.15;;;13.60;61.10;;;;;;20727510;28;20483;-82
2021/12/17 13:15:18;;;;;;;1.52;0.70;;;13.30;61.90;;;;;;20713358;28;20132;-81
2021/12/17 13:25:24;;;;;;;2.85;0.93;;;13.10;62.60;;;;;;20724019;28;20057;-85
2021/12/17 13:35:27;;;;;;;1.52;0.63;;;13.00;63.10;;;;;;20746861;28;20077;-82
2021/12/17 13:45:30;;;;;;;3.17;0.70;;;12.90;63.60;;;;;;20717818;28;20104;-87
2021/12/17 13:55:33;;;;;;;1.23;0.70;;;12.80;63.90;;;;;;20724607;28;20046;-85
2021/12/17 14:05:45;;;;;;;1.45;0.45;;;12.80;64.10;;;;;;20760151;28;20050;-79
2021/12/17 14:15:45;;;;;;;2.05;0.60;;;12.90;64.30;;;;;;20740159;28;20046;-79
2021/12/17 14:25:53;;;;;;;1.23;0.50;;;12.80;64.50;;;;;;20722888;28;20562;-77
2021/12/17 14:36:07;;;;;;;2.03;0.52;;;12.80;64.50;;;;;;20752162;28;20181;-76
2021/12/17 15:06:40;;;;;;;58.05;7.95;;;12.70;64.70;;;;;;20732000;28;20131;-78
2021/12/17 15:16:41;;;;;;;12.70;2.75;;;12.80;64.70;;;;;;20715319;28;20120;-78
2021/12/17 15:26:45;;;;;;;12.57;2.60;;;12.80;64.80;;;;;;20761648;28;20049;-79
2021/12/17 15:36:58;;;;;;;13.18;2.38;;;12.70;64.90;;;;;;20785422;28;20072;-82
2021/12/17 15:46:59;;;;;;;6.13;2.03;;;12.70;64.90;;;;;;20796376;28;20433;-81
2021/12/17 15:57:08;;;;;;;6.30;1.77;;;13.00;64.20;;;;;;20747746;28;20139;-86
2021/12/17 16:07:11;;;;;;;7.18;2.00;;;13.60;62.90;;;;;;20730258;28;20124;-78
2021/12/17 16:18:01;;;;;;;4.05;1.77;;;14.00;61.60;;;;;;20710471;28;20057;-78
2021/12/17 16:27:46;;;;;;;4.85;2.28;;;14.40;60.40;;;;;;20744943;28;20045;-82
2021/12/17 16:37:51;;;;;;;4.90;2.08;;;14.70;59.40;;;;;;20711349;28;20543;-80
2021/12/17 16:47:52;;;;;;;3.78;1.48;;;14.80;58.80;;;;;;20742092;28;20048;-79
2021/12/17 16:57:53;;;;;;;3.70;1.88;;;14.60;58.90;;;;;;20725072;28;20044;-82
2021/12/17 17:07:55;;;;;;;4.15;1.63;;;14.20;59.60;;;;;;20743789;28;20044;-82
2021/12/17 17:17:56;;;;;;;3.92;1.58;;;13.90;60.50;;;;;;20725442;28;20038;-81
2021/12/17 17:27:57;;;;;;;5.55;1.77;;;13.50;61.30;;;;;;20731427;28;20463;-82
2021/12/17 17:38:00;;;;;;;3.92;1.40;;;13.30;62.10;;;;;;20734312;28;20038;-77
2021/12/17 17:48:05;;;;;;;3.22;1.80;;;13.10;62.90;;;;;;20692536;28;20038;-78
2021/12/17 17:58:05;;;;;;;7.10;3.03;;;13.10;63.60;;;;;;20674262;28;20037;-79
2021/12/17 18:08:06;;;;;;;3.83;2.13;;;12.90;64.30;;;;;;20689627;28;20034;-74
2021/12/17 18:18:06;;;;;;;4.07;1.95;;;12.80;64.90;;;;;;20686441;28;20034;-77
2021/12/17 18:28:07;;;;;;;6.53;2.25;;;12.60;65.20;;;;;;20669213;28;20568;-77
2021/12/17 18:38:08;;;;;;;3.63;1.90;;;12.60;65.50;;;;;;20677762;28;20065;-81
2021/12/17 18:48:10;;;;;;;4.60;1.60;;;12.50;65.60;;;;;;20713546;28;20133;-76
2021/12/17 18:58:11;;;;;;;4.20;1.55;;;12.50;65.70;;;;;;20767587;28;20042;-81
2021/12/17 19:08:14;;;;;;;3.03;1.80;;;12.50;65.80;;;;;;20775900;28;20124;-80
2021/12/17 19:18:28;;;;;;;2.72;1.15;;;12.60;65.80;;;;;;20779150;28;20033;-80
2021/12/17 19:28:29;;;;;;;2.08;1.48;;;12.50;65.70;;;;;;20720197;28;1298151;-81
2021/12/17 19:38:30;;;;;;;6.47;1.67;;;12.60;65.80;;;;;;20731355;28;20053;-80
2021/12/17 19:48:37;;;;;;;4.05;1.40;;;12.50;65.70;;;;;;20728488;28;20041;-80
2021/12/17 19:58:39;;;;;;;3.58;1.55;;;12.60;65.80;;;;;;20713869;28;20048;-80
2021/12/17 20:08:39;;;;;;;2.30;1.30;;;12.60;65.70;;;;;;20728323;28;20117;-80
2021/12/17 20:18:41;;;;;;;1.73;1.10;;;12.60;65.80;;;;;;20742703;28;20041;-81
2021/12/17 20:28:50;;;;;;;3.00;1.20;;;12.60;65.80;;;;;;20725926;28;20041;-81
2021/12/17 20:38:58;;;;;;;2.40;1.17;;;12.60;65.80;;;;;;20726759;28;20038;-80
2021/12/17 20:48:59;;;;;;;1.40;1.05;;;12.50;65.90;;;;;;20725512;28;20029;-82
2021/12/17 20:58:59;;;;;;;2.85;1.33;;;12.50;65.90;;;;;;20724544;28;20045;-81
2021/12/17 21:09:03;;;;;;;1.67;1.08;;;12.50;65.90;;;;;;20741338;28;20041;-81
2021/12/17 21:19:05;;;;;;;2.65;1.17;;;12.50;65.90;;;;;;20723939;28;20030;-81
2021/12/17 21:29:06;;;;;;;2.45;1.17;;;12.50;66.00;;;;;;20719410;28;20049;-80
2021/12/17 21:39:07;;;;;;;2.05;1.00;;;12.50;66.00;;;;;;20722892;28;20045;-80
2021/12/17 21:49:10;;;;;;;1.70;1.08;;;12.50;66.10;;;;;;20705396;28;20037;-81
2021/12/17 21:59:10;;;;;;;1.25;0.75;;;12.40;66.10;;;;;;20738727;28;20030;-80
2021/12/17 22:09:11;;;;;;;1.15;0.82;;;12.40;66.10;;;;;;20706022;28;20077;-80
2021/12/17 22:19:14;;;;;;;2.27;0.97;;;12.40;66.20;;;;;;20734569;28;20124;-79
2021/12/17 22:29:15;;;;;;;0.95;0.60;;;12.40;66.30;;;;;;20719794;28;20328;-79
2021/12/17 22:39:18;;;;;;;1.80;1.13;;;12.40;66.40;;;;;;20719293;28;20476;-79
2021/12/17 22:49:19;;;;;;;1.05;0.73;;;12.40;66.40;;;;;;20750469;28;20042;-79
2021/12/17 22:59:21;;;;;;;1.83;0.88;;;12.40;66.50;;;;;;20717464;28;20032;-79
2021/12/17 23:09:28;;;;;;;2.30;1.17;;;12.40;66.50;;;;;;20733009;28;20099;-79
2021/12/17 23:19:31;;;;;;;2.28;1.20;;;12.40;66.60;;;;;;20748193;28;20473;-78
2021/12/17 23:29:32;;;;;;;1.80;1.25;;;12.30;66.70;;;;;;20746603;28;20537;-79
2021/12/17 23:39:32;;;;;;;0.82;0.77;;;12.30;66.80;;;;;;20730184;28;20038;-79
2021/12/17 23:49:33;;;;;;;1.13;0.80;;;12.40;66.90;;;;;;20746396;28;20030;-79
2021/12/17 23:59:33;;;;;;;2.22;1.00;;;12.30;66.90;;;;;;20728426;28;20327;-79
